Mass Start - EYOC 2012 Lac de Vassivière (87) - D

Date : 01/07/2012

Place Nom Licence Catégorie Club Temps CN à J-60 Points Différence Nouveau CN
1 PERRIN Mathieu 8976 H14 4201RA 0:25:26 5478 6071 +593 6191
2 PANNIER Quentin 16688 H14 7807IF 0:26:31 4290 5823 +1533 4472
3 MOISSET Jacques 2328 H60 7403RA 0:26:32 5232 5819 +587 6145
4 CAVARROC Hugo 16331 H14 1104LR 0:26:33 4207 5816 +1609 4911
5 ROCHE Maxime 15418 H14 6911RA 0:26:37 3637 5801 +2164 4448
6 TANGUY Leo 13329 H14 3502BR 0:26:39 4122 5794 +1672 4622
7 MASLIAH Raphaël 26389 H14 2610RA 0:26:40 2580 5790 +3210 5200
8 GUILLEMET Océane 22819 D16 3318AQ 0:26:41 4825 5786 +961 5404
9 VIGIER Léo 22094 H14 4203RA 0:26:42 3944 5783 +1839 4600
10 PICHARD Adrien 16456 H14 6911RA 0:27:20 3725 5649 +1924 4565
11 GIRARD Lucille 19689 D16 3705CE 0:27:30 5139 5615 +476 5502
12 DELENNE Camilla 13800 D16 1307PR 0:27:34 4155 5601 +1446 4640
13 POURRE Jeremi 14273 H14 2508FC 0:27:41 3962 5577 +1615 4603
14 DOURDOU-VARRON Malo 14751 H14 9404IF 0:28:53 3925 5346 +1421 4366
15 BATTISTA Clement 17545 H14 3308AQ 0:28:56 5534 5336 -198 5603
16 DAYON Pierre 15718 H60 4012AQ 0:28:58 5131 5330 +199 5680
17 VERGNAUD Alexandre 21052 H14 8702LI 0:29:03 4094 5315 +1221 4393
18 MASCARELL Henri 8928 H60 6911RA 0:29:08 5673 5300 -373 5890
19 DECHAVANNE J-Francois 3461 H60 6911RA 0:29:10 6000 5294 -706 6293
20 TRESSOL Marine 20532 D14 4704AQ 0:29:22 3297 5258 +1961 3424
21 BASSET Fiona 23384 D16 6911RA 0:29:32 4377 5228 +851 4939
22 PICAZO Marie 16555 D16 8405PR 0:30:06 4407 5130 +723 4857
23 MAGDINIER Gilles 1635 H60 1307PR 0:30:51 4904 5005 +101 5376
24 PETER-JAN Lucile 19276 D16 3705CE 0:31:00 4865 4981 +116 5024
25 RIVOLLIER Isaline 22451 D16 4201RA 0:31:05 4507 4967 +460 4550
26 BASSET Juliette 12398 D14 6911RA 0:31:14 3826 4944 +1118 4361
27 MOUSSU Sarah 22301 D16 3318AQ 0:31:22 3436 4923 +1487 4205
28 LUTHRINGER Coline 10091 D16 8809LO 0:31:26 4397 4912 +515 4934
29 CLEMENT-AGONI Benjamin 11391 H21 2108BO 0:31:51 5398 4848 -550 5536
30 DUQUENNE Audrey 23885 D16 5907NO 0:32:00 3988 4825 +837 4168
31 FERRAND Antonin 23465 H14 4203RA 0:32:30 3931 4751 +820 4542
32 CLOUARD Augustin 8552 H14 7807IF 0:33:20 3814 4632 +818 3973
33 LEDUC Benjamin 21123 H14 1905LI 0:34:03 4573 4535 -38 4626
34 MENUT J-Claude 1656 H60 8105MP 0:34:19 5800 4499 -1301 5990
35 ROBIN Patrick 1707 H60 1705PC 0:34:24 5208 4488 -720 5413
36 VUILLET Christian 2712 H60 2105BO 0:34:30 4722 4475 -247 4818
37 BERGER-CAPBERN Valérie 6068 D50 3105MP 0:34:32 5138 4471 -667 5344
38 DUPOIRIEUX Sophie 10496 D50 8807LO 0:34:53 4431 4426 -5 4514
39 GHIBAUDO Simon 20917 H14 4203RA 0:35:00 3704 4412 +708 4100
40 EVEN Gabriel 2789 H70 2206BR 0:35:05 5657 4401 -1256 5522
41 BONNET Christine 2400 D55 5402LO 0:35:07 4998 4397 -601 5132
42 ROLLET Daniel 2411 H65 5415LO 0:35:09 3489 4393 +904 4357
43 PETIT Guyonne 4372 D55 7808IF 0:35:38 4722 4333 -389 4782
44 CHARDOT Marion 22315 D16 7807IF 0:37:52 3992 4078 +86 4326
45 BONORA Marine 11542 D16 6906RA 0:37:54 3743 4074 +331 4064
46 CALANDOT J-Pierre 2926 H60 1403NM 0:38:09 5203 4047 -1156 5153
47 QUEYROI Henri 655 H65 3308AQ 0:38:14 4832 4038 -794 5383
48 ROUX Marie Françoise 25236 D50 4201RA 0:38:19 3079 4030 +951 4054
49 LECUYER Manon 22549 D16 5907NO 0:38:24 2753 4021 +1268 2970
50 GERBEAUX Jean-paul 23596 H60 6205NO 0:38:32 3726 4007 +281 3826
51 FIGUIERE Lucile 10087 D16 7109BO 0:39:13 2565 3937 +1372 2970
52 COMBET Annie 813 D50 4203RA 0:39:31 4475 3907 -568 4816
53 ROBERT Francoise 6491 D60 6913RA 0:39:46 4475 3883 -592 4475
54 CLAUZEAU Cléa 21958 D16 1705PC 0:39:56 3554 3867 +313 3845
55 GERBEAUX Marie-jeanne 22417 D55 6205NO 0:39:57 3360 3865 +505 3486
56 SCHMITT-POUPARD Florence 12056 D55 6913RA 0:40:13 3927 3839 -88 4047
57 CHAMPIGNY Hélène 24631 D12 8318AZ 0:40:29 1952 3814 +1862 2586
58 TERRILLON Marie-Therese 15717 D50 4012AQ 0:40:38 4140 3800 -340 4533
59 ARMBRUSTER Marie 2952 D50 2508FC 0:40:40 4111 3797 -314 4161
60 LAVIELLE Alain 965 H65 4012AQ 0:40:48 4921 3784 -1137 4944
61 HAMON Patrick 2146 H60 9307IF 0:41:48 4759 3694 -1065 5057
62 CROCHET Gerard 2817 H70 1705PC 0:43:13 4187 3573 -614 4364
63 GENNARO Leslie 20863 D16 3811RA 0:43:24 3122 3558 +436 3591
64 DOMENICI J-Claude 1052 H70 1705PC 0:43:32 3776 3547 -229 3862
65 CAZEMAYOR Tess 22291 D16 3318AQ 0:43:56 2358 3514 +1156 3151
66 PITAVAL Sylvie 12060 D50 4201RA 0:44:01 3845 3508 -337 3956
67 LE ROUX Anne-Francoise 7409 D50 3318AQ 0:44:21 3994 3481 -513 4173
68 CHALOPIN Catherine 3674 D60 2105BO 0:44:40 3898 3457 -441 3988
69 DEVILLE Nelly 2401 D60 5402LO 0:44:57 4823 3435 -1388 4924
70 MOISSET Nicole 2329 D55 7403RA 0:46:24 2340 3328 +988 3567
71 LAURENT Manon 25577 D16 5907NO 0:46:33 2077 3317 +1240 2523
72 BERCHE Léa 24420 D16 5907NO 0:46:47 3115 3300 +185 3218
73 POIROT Lilou 23658 D14 8809LO 0:47:07 2532 3277 +745 2871
74 DODIN Yves 4391 H60 8809LO 0:48:33 3683 3180 -503 3734
75 DUDOIGNON Chloé 18089 D14 2605RA 0:48:40 3870 3173 -697 4004
76 BAUDRY J-Claude 1693 H65 1705PC 0:48:59 3821 3152 -669 3726
77 LEGRAND Mathis 24893 H14 7707IF 0:50:52 3275 3035 -240 3442
78 NATALI Pierre 1107 H60 8105MP 0:53:04 4184 2910 -1274 4260
79 DEBARBIEUX Julie 24574 D16 2108BO 0:53:32 2755 2884 +129 3446
80 LEVESY Salomé 23127 D14 3810RA 0:54:50 2735 2816 +81 2822
81 RAULT Monique 17265 D55 1103LR 0:55:33 3090 2780 -310 3213
82 ELIAS Jean-claude 24745 H70 1307PR 1:00:55 3513 2535 -978 4043
83 BERGER Dominique 23890 H65 1705PC 1:02:01 2997 2490 -507 2905
84 GUIGNARD Marie 11369 D50 7203PL 1:02:13 3437 2482 -955 3434
85 CAZALA Dominique 14876 D55 3308AQ 1:02:55 2936 2454 -482 2936
86 VERDIN Christine 15274 D50 7109BO 1:03:28 2665 2433 -232 2771
87 KIEFFER J-Paul 2679 H60 2101BO 1:03:45 3885 2422 -1463 3899
88 GROSJEAN Pierre 12354 H70 6913RA 1:04:05 3064 2409 -655 2970
89 DRAULT J-Raymond 4234 H70 8702LI 1:08:34 2975 2252 -723 3156
90 DODIN Genevieve 4392 D60 8809LO 1:21:21 2505 1898 -607 2588
91 MASSON Patricia 2439 D55 4902PL 1:21:21 1952 1898 -54 1939
92 PROST Daniel 2181 H70 9307IF 1:21:37 2804 1892 -912 3046
ELIAS Guilhem 17763 H12 1307PR pm 4187 0 4588
PICHARD Lucien 17710 H14 6911RA pm 3668 0 3813
MARTINEZ Catherine 7833 D50 4012AQ pm 3609 0 3749
DELENNE Joanna 17030 D14 1307PR pm 3015 0 3098
GATY Daniele 841 D55 4203RA pm 4109 0 4109
ANGLADE Lucile 21188 D16 5604BR pm 4223 0 4379
QUEYROI Yvette 14021 D50 3308AQ pm 2107 0 2107
PROST Gisele 2182 D60 9307IF pm 2845 0 2848